createdAt,value
2022-07-30T00:03:24.826Z,6.70
2022-07-30T00:08:25.593Z,5.80
2022-07-30T00:13:26.306Z,4.72
2022-07-30T00:18:28.235Z,3.63
2022-07-30T00:23:28.841Z,4.65
2022-07-30T00:28:29.525Z,4.50
2022-07-30T00:33:31.481Z,4.85
2022-07-30T00:38:32.130Z,4.43
2022-07-30T00:43:32.758Z,4.68
2022-07-30T00:48:34.736Z,4.32
2022-07-30T00:53:36.189Z,5.53
2022-07-30T00:58:37.529Z,5.20
2022-07-30T01:03:39.798Z,5.50
2022-07-30T01:08:40.671Z,5.45
2022-07-30T01:13:41.575Z,5.40
2022-07-30T01:19:00.037Z,5.43
2022-07-30T01:24:12.798Z,4.95
2022-07-30T01:29:16.988Z,5.30
2022-07-30T01:34:19.095Z,4.93
2022-07-30T01:39:21.290Z,4.88
2022-07-30T01:44:26.839Z,5.18
2022-07-30T01:49:29.964Z,5.72
2022-07-30T01:54:32.863Z,4.93
2022-07-30T01:59:36.648Z,5.60
2022-07-30T02:04:37.316Z,5.60
2022-07-30T02:09:47.272Z,5.70
2022-07-30T02:14:53.461Z,5.60
2022-07-30T02:19:57.609Z,5.53
2022-07-30T02:25:01.880Z,5.57
2022-07-30T02:30:06.218Z,5.38
2022-07-30T02:35:12.581Z,5.18
2022-07-30T02:40:16.785Z,5.32
2022-07-30T02:45:20.030Z,5.68
2022-07-30T02:50:21.741Z,5.32
2022-07-30T02:55:23.994Z,5.35
2022-07-30T03:00:26.879Z,5.55
2022-07-30T03:05:28.821Z,5.35
2022-07-30T03:10:31.860Z,5.65
2022-07-30T03:15:35.219Z,5.45
2022-07-30T03:20:41.757Z,5.40
2022-07-30T03:25:43.819Z,5.75
2022-07-30T03:30:46.003Z,5.50
2022-07-30T03:35:47.194Z,5.85
2022-07-30T03:40:48.643Z,5.13
2022-07-30T03:45:52.108Z,5.88
2022-07-30T03:50:55.493Z,6.00
2022-07-30T03:55:57.669Z,5.90
2022-07-30T04:01:27.158Z,6.30
2022-07-30T04:06:32.810Z,5.95
2022-07-30T04:11:40.853Z,6.28
2022-07-30T04:16:51.795Z,5.72
2022-07-30T04:21:59.465Z,5.90
2022-07-30T04:27:02.019Z,6.18
2022-07-30T04:32:04.993Z,5.25
2022-07-30T04:37:27.364Z,7.00
2022-07-30T04:42:29.797Z,6.65
2022-07-30T04:47:38.836Z,5.97
2022-07-30T04:53:03.721Z,5.97
2022-07-30T04:58:08.637Z,6.10
2022-07-30T05:03:13.468Z,6.10
2022-07-30T05:08:17.502Z,5.90
2022-07-30T05:13:18.191Z,6.10
2022-07-30T05:18:24.264Z,6.30
2022-07-30T05:23:24.941Z,6.85
2022-07-30T05:28:56.666Z,5.63
2022-07-30T05:34:06.460Z,6.05
2022-07-30T05:39:16.231Z,5.53
2022-07-30T05:44:35.448Z,5.93
2022-07-30T05:49:37.419Z,6.05
2022-07-30T05:54:41.986Z,6.18
2022-07-30T06:00:01.939Z,5.43
2022-07-30T06:05:18.883Z,6.40
2022-07-30T06:10:20.365Z,6.05
2022-07-30T06:15:25.775Z,6.95
2022-07-30T06:20:28.976Z,5.63
2022-07-30T06:25:55.950Z,6.05
2022-07-30T06:30:57.247Z,6.45
2022-07-30T06:36:02.185Z,5.47
2022-07-30T06:41:10.403Z,5.90
2022-07-30T06:46:24.057Z,5.65
2022-07-30T06:51:27.842Z,5.53
2022-07-30T06:56:28.518Z,5.50
2022-07-30T07:01:33.785Z,6.55
2022-07-30T07:06:36.190Z,5.97
2022-07-30T07:11:37.055Z,4.93
2022-07-30T07:16:42.755Z,5.78
2022-07-30T07:22:09.621Z,5.35
2022-07-30T07:27:15.328Z,7.32
2022-07-30T07:32:17.722Z,4.75
2022-07-30T07:37:19.684Z,5.72
2022-07-30T07:42:20.808Z,5.97
2022-07-30T07:47:22.599Z,5.88
2022-07-30T07:52:38.846Z,6.70
2022-07-30T07:57:40.758Z,7.00
2022-07-30T08:02:42.542Z,7.20
2022-07-30T08:07:45.715Z,7.10
2022-07-30T08:13:05.280Z,6.68
2022-07-30T08:18:28.603Z,7.55
2022-07-30T08:23:44.628Z,7.85
2022-07-30T08:28:45.807Z,6.60
2022-07-30T08:33:47.039Z,8.07
2022-07-30T08:38:49.645Z,8.38
2022-07-30T08:43:52.071Z,7.00
2022-07-30T08:48:55.792Z,7.05
2022-07-30T08:54:01.149Z,7.10
2022-07-30T08:59:02.596Z,6.88
2022-07-30T09:04:03.510Z,6.97
2022-07-30T09:09:05.734Z,6.20
2022-07-30T09:14:10.247Z,5.75
2022-07-30T09:19:16.347Z,5.72
2022-07-30T09:24:19.141Z,5.72
2022-07-30T09:29:40.051Z,5.82
2022-07-30T09:35:13.875Z,5.70
2022-07-30T09:40:57.324Z,6.30
2022-07-30T09:46:21.145Z,6.85
2022-07-30T09:52:06.715Z,7.80
2022-07-30T09:57:26.422Z,7.28
2022-07-30T10:02:37.739Z,6.75
2022-07-30T10:08:09.214Z,7.32
2022-07-30T10:13:20.809Z,7.18
2022-07-30T10:18:23.247Z,6.18
2022-07-30T10:23:27.091Z,6.75
2022-07-30T10:28:48.070Z,6.85
2022-07-30T10:33:49.022Z,5.88
2022-07-30T10:38:52.942Z,6.57
2022-07-30T10:44:15.753Z,6.22
2022-07-30T10:49:18.828Z,5.90
2022-07-30T10:54:40.355Z,5.97
2022-07-30T11:00:15.636Z,6.03
2022-07-30T11:05:44.013Z,5.88
2022-07-30T11:10:46.598Z,5.25
2022-07-30T11:15:57.197Z,5.93
2022-07-30T11:21:21.509Z,6.07
2022-07-30T11:26:49.122Z,5.30
2022-07-30T11:32:07.619Z,5.88
2022-07-30T11:37:19.093Z,5.28
2022-07-30T11:42:26.892Z,4.90
2022-07-30T11:47:30.484Z,4.88
2022-07-30T11:52:31.357Z,5.25
2022-07-30T11:57:40.702Z,5.07
2022-07-30T12:02:42.729Z,5.00
2022-07-30T12:07:43.878Z,5.18
2022-07-30T12:12:45.838Z,4.82
2022-07-30T12:17:47.932Z,5.53
2022-07-30T12:22:49.061Z,3.90
2022-07-30T12:27:52.352Z,4.63
2022-07-30T12:32:54.665Z,4.82
2022-07-30T12:38:06.009Z,4.97
2022-07-30T12:43:06.849Z,5.20
2022-07-30T12:48:16.091Z,4.47
2022-07-30T12:53:17.089Z,4.63
2022-07-30T12:58:17.849Z,4.78
2022-07-30T13:03:24.518Z,4.38
2022-07-30T13:08:46.439Z,4.70
2022-07-30T13:13:47.722Z,4.45
2022-07-30T13:18:49.796Z,5.03
2022-07-30T13:23:50.546Z,4.05
2022-07-30T13:28:51.309Z,3.55
2022-07-30T13:33:53.671Z,3.78
2022-07-30T13:38:54.564Z,4.38
2022-07-30T13:43:55.497Z,3.80
2022-07-30T13:48:57.464Z,2.70
2022-07-30T13:53:58.323Z,3.22
2022-07-30T13:58:59.887Z,3.00
2022-07-30T14:04:01.820Z,4.20
2022-07-30T14:09:02.547Z,4.90
2022-07-30T14:14:03.231Z,5.40
2022-07-30T14:19:05.336Z,5.88
2022-07-30T14:24:07.991Z,4.05
2022-07-30T14:29:09.293Z,5.53
2022-07-30T14:34:11.290Z,3.83
2022-07-30T14:39:12.178Z,2.35
2022-07-30T14:44:13.788Z,2.20
2022-07-30T14:49:19.376Z,2.30
2022-07-30T14:54:20.420Z,2.38
2022-07-30T14:59:21.567Z,1.88
2022-07-30T15:04:23.594Z,2.15
2022-07-30T15:09:24.297Z,1.67
2022-07-30T15:14:26.921Z,1.90
2022-07-30T15:19:30.459Z,2.13
2022-07-30T15:24:31.652Z,1.88
2022-07-30T15:29:32.666Z,2.08
2022-07-30T15:34:35.914Z,1.50
2022-07-30T15:39:36.601Z,1.50
2022-07-30T15:44:42.261Z,1.50
2022-07-30T15:49:50.591Z,1.80
2022-07-30T15:54:52.351Z,1.77
2022-07-30T15:59:53.343Z,2.08
2022-07-30T16:04:55.309Z,1.60
2022-07-30T16:09:55.931Z,1.60
2022-07-30T16:14:56.540Z,1.77
2022-07-30T16:19:58.493Z,1.85
2022-07-30T16:24:59.109Z,1.88
2022-07-30T16:29:59.791Z,1.70
2022-07-30T16:35:01.922Z,1.80
2022-07-30T16:40:03.955Z,1.40
2022-07-30T16:45:05.249Z,1.55
2022-07-30T16:50:09.437Z,1.35
2022-07-30T16:55:10.343Z,1.60
2022-07-30T17:00:13.020Z,1.40
2022-07-30T17:05:14.930Z,1.42
2022-07-30T17:10:15.590Z,1.60
2022-07-30T17:15:32.374Z,1.73
2022-07-30T17:20:35.503Z,1.38
2022-07-30T17:25:36.138Z,1.95
2022-07-30T17:30:36.848Z,2.25
2022-07-30T17:35:38.808Z,2.38
2022-07-30T17:40:39.478Z,1.88
2022-07-30T17:45:40.213Z,1.73
2022-07-30T17:50:42.168Z,1.70
2022-07-30T17:55:57.945Z,1.50
2022-07-30T18:01:02.575Z,1.80
2022-07-30T18:06:04.950Z,1.65
2022-07-30T18:11:08.600Z,3.85
2022-07-30T18:16:11.746Z,5.53
2022-07-30T18:21:14.432Z,5.18
2022-07-30T18:26:15.354Z,5.85
2022-07-30T18:31:16.107Z,5.53
2022-07-30T18:36:18.181Z,7.13
2022-07-30T18:41:19.413Z,6.45
2022-07-30T18:46:21.300Z,6.65
2022-07-30T18:51:25.154Z,6.70
2022-07-30T18:56:26.870Z,6.65
2022-07-30T19:01:27.642Z,7.25
2022-07-30T19:06:31.366Z,7.50
2022-07-30T19:11:32.364Z,6.20
2022-07-30T19:16:33.201Z,7.43
2022-07-30T19:21:35.580Z,9.35
2022-07-30T19:26:38.922Z,7.20
2022-07-30T19:31:41.655Z,7.82
2022-07-30T19:36:43.995Z,6.38
2022-07-30T19:41:44.958Z,6.40
2022-07-30T19:46:46.205Z,7.35
2022-07-30T19:52:10.080Z,7.30
2022-07-30T19:57:13.390Z,7.75
2022-07-30T20:02:15.640Z,7.93
2022-07-30T20:07:17.753Z,8.88
2022-07-30T20:12:18.360Z,8.05
2022-07-30T20:17:19.063Z,8.10
2022-07-30T20:22:21.215Z,7.85
2022-07-30T20:27:36.560Z,7.72
2022-07-30T20:32:43.544Z,8.63
2022-07-30T20:37:54.809Z,8.32
2022-07-30T20:42:56.653Z,8.88
2022-07-30T20:48:01.715Z,7.88
2022-07-30T20:53:04.162Z,9.18
2022-07-30T20:58:09.977Z,8.00
2022-07-30T21:03:18.433Z,8.73
2022-07-30T21:08:25.606Z,7.93
2022-07-30T21:13:26.893Z,9.13
2022-07-30T21:18:27.591Z,9.00
2022-07-30T21:23:29.574Z,9.00
2022-07-30T21:28:35.362Z,8.93
2022-07-30T21:33:36.939Z,8.35
2022-07-30T21:38:41.857Z,7.53
2022-07-30T21:43:43.742Z,8.15
2022-07-30T21:48:44.485Z,7.40
2022-07-30T21:53:46.969Z,8.15
2022-07-30T21:58:48.601Z,6.55
2022-07-30T22:04:04.568Z,6.75
2022-07-30T22:09:19.610Z,6.70
2022-07-30T22:14:34.047Z,6.80
2022-07-30T22:19:35.870Z,6.90
2022-07-30T22:24:38.543Z,7.47
2022-07-30T22:29:42.556Z,7.47
2022-07-30T22:34:43.342Z,7.40
2022-07-30T22:45:08.673Z,7.78
2022-07-30T22:50:11.589Z,7.40
2022-07-30T22:55:14.452Z,7.80
2022-07-30T23:00:27.915Z,7.05
2022-07-30T23:05:29.161Z,7.03
2022-07-30T23:10:31.622Z,8.43
2022-07-30T23:12:32.622Z,7.28
2022-07-30T23:15:33.088Z,7.70
2022-07-30T23:20:34.062Z,8.07
2022-07-30T23:25:39.102Z,7.82
2022-07-30T23:30:39.992Z,7.45
2022-07-30T23:35:41.337Z,7.97
2022-07-30T23:40:43.256Z,7.90
2022-07-30T23:45:44.548Z,8.48
2022-07-30T23:50:45.422Z,8.45
2022-07-30T23:55:49.736Z,7.65
